Time,TemperatureF,DewpointF,PressureIn,WindDirection,WindDirectionDegrees,WindSpeedMPH,WindSpeedGustMPH,Humidity,HourlyPrecipIn,Conditions,Clouds,dailyrainin,SoftwareType,DateUTC
2013-09-20 00:09:00,69.3,44.6,29.72,SE,138,1.0,2.0,41,0.00,,---,0.00,VWS V14.01,2013-09-20 07:09:00,
2013-09-20 00:14:00,69.6,44.2,29.72,SE,137,2.0,4.0,40,0.00,,---,0.00,VWS V14.01,2013-09-20 07:14:00,
2013-09-20 00:19:00,69.9,44.5,29.72,SE,134,0.0,3.0,40,0.00,,---,0.00,VWS V14.01,2013-09-20 07:19:00,
2013-09-20 00:24:00,69.7,44.3,29.72,SE,129,0.0,2.0,40,0.00,,---,0.00,VWS V14.01,2013-09-20 07:24:00,
2013-09-20 00:34:00,69.5,44.2,29.72,SE,136,1.0,2.0,40,0.00,,---,0.00,VWS V14.01,2013-09-20 07:34:00,
2013-09-20 00:39:00,69.4,44.1,29.72,SE,131,1.0,2.0,40,0.00,,---,0.00,VWS V14.01,2013-09-20 07:39:00,
2013-09-20 00:44:00,69.2,44.5,29.72,SSE,163,0.0,3.0,41,0.00,,---,0.00,VWS V14.01,2013-09-20 07:44:00,
2013-09-20 00:49:00,68.9,44.9,29.71,SE,137,1.0,2.0,42,0.00,,---,0.00,VWS V14.01,2013-09-20 07:49:00,
2013-09-20 00:54:00,68.8,44.8,29.71,SE,136,0.0,2.0,42,0.00,,---,0.00,VWS V14.01,2013-09-20 07:54:00,
2013-09-20 00:59:00,68.6,44.6,29.71,SSE,150,0.0,2.0,42,0.00,,---,0.00,VWS V14.01,2013-09-20 07:59:00,
2013-09-20 01:04:00,68.6,44.6,29.71,SE,125,0.0,2.0,42,0.00,,---,0.00,VWS V14.01,2013-09-20 08:04:00,
2013-09-20 01:14:00,68.9,44.9,29.72,SE,143,1.0,2.0,42,0.00,,---,0.00,VWS V14.01,2013-09-20 08:14:00,
2013-09-20 01:19:00,68.8,44.2,29.72,SSE,147,0.0,1.0,41,0.00,,---,0.00,VWS V14.01,2013-09-20 08:19:00,
2013-09-20 01:24:00,68.8,44.8,29.72,SE,134,0.0,1.0,42,0.00,,---,0.00,VWS V14.01,2013-09-20 08:24:00,
2013-09-20 01:29:00,68.6,44.6,29.71,SE,136,0.0,1.0,42,0.00,,---,0.00,VWS V14.01,2013-09-20 08:29:00,
2013-09-20 01:34:00,68.4,44.4,29.71,SE,138,1.0,1.0,42,0.00,,---,0.00,VWS V14.01,2013-09-20 08:34:00,
2013-09-20 01:39:00,68.2,44.9,29.72,SE,135,1.0,2.0,43,0.00,,---,0.00,VWS V14.01,2013-09-20 08:39:00,
2013-09-20 01:44:00,68.0,44.7,29.72,SE,132,1.0,3.0,43,0.00,,---,0.00,VWS V14.01,2013-09-20 08:44:00,
2013-09-20 01:49:00,68.0,44.7,29.72,SE,131,1.0,3.0,43,0.00,,---,0.00,VWS V14.01,2013-09-20 08:49:00,
2013-09-20 01:54:00,67.9,44.0,29.72,SE,139,1.0,2.0,42,0.00,,---,0.00,VWS V14.01,2013-09-20 08:54:00,
2013-09-20 01:59:00,67.9,44.6,29.71,SE,138,1.0,2.0,43,0.00,,---,0.00,VWS V14.01,2013-09-20 08:59:00,
2013-09-20 02:04:00,67.7,44.4,29.71,SSE,150,1.0,1.0,43,0.00,,---,0.00,VWS V14.01,2013-09-20 09:04:00,
2013-09-20 02:09:00,67.6,44.3,29.71,SE,146,1.0,2.0,43,0.00,,---,0.00,VWS V14.01,2013-09-20 09:09:00,
2013-09-20 02:14:00,67.5,44.8,29.71,SE,132,1.0,1.0,44,0.00,,---,0.00,VWS V14.01,2013-09-20 09:14:00,
2013-09-20 02:19:00,67.3,44.7,29.71,SE,143,1.0,1.0,44,0.00,,---,0.00,VWS V14.01,2013-09-20 09:19:00,
2013-09-20 02:24:00,67.1,44.5,29.71,SE,141,0.0,1.0,44,0.00,,---,0.00,VWS V14.01,2013-09-20 09:24:00,
2013-09-20 02:29:00,67.0,45.0,29.70,SE,139,0.0,1.0,45,0.00,,---,0.00,VWS V14.01,2013-09-20 09:29:00,
2013-09-20 02:34:00,67.0,44.4,29.70,SSE,163,0.0,2.0,44,0.00,,---,0.00,VWS V14.01,2013-09-20 09:34:00,
2013-09-20 02:39:00,67.3,44.1,29.70,SSE,153,1.0,2.0,43,0.00,,---,0.00,VWS V14.01,2013-09-20 09:39:00,
2013-09-20 02:44:00,67.8,43.9,29.70,SSE,165,1.0,2.0,42,0.00,,---,0.00,VWS V14.01,2013-09-20 09:44:00,
2013-09-20 02:49:00,68.1,43.5,29.70,South,169,0.0,1.0,41,0.00,,---,0.00,VWS V14.01,2013-09-20 09:49:00,
2013-09-20 02:54:00,68.4,43.8,29.70,South,176,1.0,2.0,41,0.00,,---,0.00,VWS V14.01,2013-09-20 09:54:00,
2013-09-20 02:59:00,68.5,43.9,29.70,SSE,153,0.0,1.0,41,0.00,,---,0.00,VWS V14.01,2013-09-20 09:59:00,
2013-09-20 03:04:00,68.6,43.3,29.70,SSE,148,0.0,1.0,40,0.00,,---,0.00,VWS V14.01,2013-09-20 10:04:00,
2013-09-20 03:09:00,68.7,43.4,29.70,SSW,197,0.0,2.0,40,0.00,,---,0.00,VWS V14.01,2013-09-20 10:09:00,
2013-09-20 03:14:00,68.8,43.5,29.70,SE,146,1.0,1.0,40,0.00,,---,0.00,VWS V14.01,2013-09-20 10:14:00,
2013-09-20 03:19:00,68.8,43.5,29.69,South,179,0.0,2.0,40,0.00,,---,0.00,VWS V14.01,2013-09-20 10:19:00,
2013-09-20 03:24:00,68.7,43.4,29.69,SSE,159,0.0,1.0,40,0.00,,---,0.00,VWS V14.01,2013-09-20 10:24:00,
2013-09-20 03:29:00,68.5,43.9,29.69,SSE,147,0.0,1.0,41,0.00,,---,0.00,VWS V14.01,2013-09-20 10:29:00,
2013-09-20 03:34:00,68.3,43.7,29.69,SE,138,1.0,2.0,41,0.00,,---,0.00,VWS V14.01,2013-09-20 10:34:00,
2013-09-20 03:39:00,68.2,43.6,29.69,SSE,154,0.0,2.0,41,0.00,,---,0.00,VWS V14.01,2013-09-20 10:39:00,
2013-09-20 03:44:00,68.1,43.5,29.69,SE,143,0.0,1.0,41,0.00,,---,0.00,VWS V14.01,2013-09-20 10:44:00,
2013-09-20 03:49:00,67.7,43.2,29.69,SSE,164,0.0,1.0,41,0.00,,---,0.00,VWS V14.01,2013-09-20 10:49:00,
2013-09-20 03:59:00,67.2,43.4,29.70,SSE,162,0.0,1.0,42,0.00,,---,0.00,VWS V14.01,2013-09-20 10:59:00,
2013-09-20 04:04:00,67.1,42.6,29.70,SSE,153,0.0,1.0,41,0.00,,---,0.00,VWS V14.01,2013-09-20 11:04:00,
2013-09-20 04:09:00,67.0,44.4,29.70,WNW,295,1.0,1.0,44,0.00,,---,0.00,VWS V14.01,2013-09-20 11:09:00,
2013-09-20 04:14:00,66.2,43.7,29.70,WNW,295,0.0,1.0,44,0.00,,---,0.00,VWS V14.01,2013-09-20 11:14:00,
2013-09-20 04:19:00,65.4,44.1,29.70,WNW,295,0.0,0.0,46,0.00,,---,0.00,VWS V14.01,2013-09-20 11:19:00,
2013-09-20 04:24:00,64.5,43.8,29.70,WNW,295,0.0,1.0,47,0.00,,---,0.00,VWS V14.01,2013-09-20 11:24:00,
2013-09-20 04:29:00,63.5,43.5,29.69,WNW,295,0.0,0.0,48,0.00,,---,0.00,VWS V14.01,2013-09-20 11:29:00,
2013-09-20 04:34:00,62.7,43.3,29.69,WNW,295,0.0,0.0,49,0.00,,---,0.00,VWS V14.01,2013-09-20 11:34:00,
2013-09-20 04:39:00,62.0,43.7,29.69,WNW,295,0.0,0.0,51,0.00,,---,0.00,VWS V14.01,2013-09-20 11:39:00,
2013-09-20 04:44:00,61.4,44.6,29.69,WNW,294,0.0,0.0,54,0.00,,---,0.00,VWS V14.01,2013-09-20 11:44:00,
2013-09-20 04:49:00,60.8,44.5,29.69,WNW,294,0.0,0.0,55,0.00,,---,0.00,VWS V14.01,2013-09-20 11:49:00,
2013-09-20 04:54:00,60.2,44.5,29.69,WNW,294,0.0,0.0,56,0.00,,---,0.00,VWS V14.01,2013-09-20 11:54:00,
2013-09-20 04:59:00,59.7,44.9,29.69,WNW,294,0.0,0.0,58,0.00,,---,0.00,VWS V14.01,2013-09-20 11:59:00,
2013-09-20 05:04:00,59.2,44.9,29.69,WNW,294,0.0,0.0,59,0.00,,---,0.00,VWS V14.01,2013-09-20 12:04:00,
2013-09-20 05:09:00,58.9,45.1,29.69,WNW,294,0.0,0.0,60,0.00,,---,0.00,VWS V14.01,2013-09-20 12:09:00,
2013-09-20 05:14:00,58.7,44.9,29.69,WNW,294,0.0,1.0,60,0.00,,---,0.00,VWS V14.01,2013-09-20 12:14:00,
2013-09-20 05:19:00,58.4,44.6,29.69,WNW,294,0.0,1.0,60,0.00,,---,0.00,VWS V14.01,2013-09-20 12:19:00,
2013-09-20 05:24:00,58.2,44.8,29.70,WNW,294,0.0,0.0,61,0.00,,---,0.00,VWS V14.01,2013-09-20 12:24:00,
2013-09-20 05:29:00,58.1,45.2,29.70,WNW,294,0.0,0.0,62,0.00,,---,0.00,VWS V14.01,2013-09-20 12:29:00,
2013-09-20 05:34:00,58.1,45.6,29.70,WNW,294,0.0,0.0,63,0.00,,---,0.00,VWS V14.01,2013-09-20 12:34:00,
2013-09-20 05:39:00,58.2,47.3,29.70,WNW,294,0.0,0.0,67,0.00,,---,0.00,VWS V14.01,2013-09-20 12:39:00,
2013-09-20 05:44:00,58.0,45.5,29.70,WNW,294,0.0,0.0,63,0.00,,---,0.00,VWS V14.01,2013-09-20 12:44:00,
2013-09-20 05:49:00,58.4,44.1,29.70,SSE,156,0.0,1.0,59,0.00,,---,0.00,VWS V14.01,2013-09-20 12:49:00,
2013-09-20 05:54:00,59.6,43.0,29.70,SE,129,0.0,2.0,54,0.00,,---,0.00,VWS V14.01,2013-09-20 12:54:00,
2013-09-20 05:59:00,60.7,43.0,29.70,SE,136,0.0,2.0,52,0.00,,---,0.00,VWS V14.01,2013-09-20 12:59:00,
2013-09-20 06:09:00,61.5,42.7,29.70,SE,136,1.0,2.0,50,0.00,,---,0.00,VWS V14.01,2013-09-20 13:09:00,
2013-09-20 06:14:00,61.7,42.4,29.70,SE,137,1.0,2.0,49,0.00,,---,0.00,VWS V14.01,2013-09-20 13:14:00,
2013-09-20 06:19:00,61.9,42.0,29.71,SSE,163,1.0,2.0,48,0.00,,---,0.00,VWS V14.01,2013-09-20 13:19:00,
2013-09-20 06:24:00,61.9,42.0,29.71,SE,141,1.0,1.0,48,0.00,,---,0.00,VWS V14.01,2013-09-20 13:24:00,
2013-09-20 06:29:00,61.9,41.5,29.71,SSE,147,0.0,2.0,47,0.00,,---,0.00,VWS V14.01,2013-09-20 13:29:00,
2013-09-20 06:34:00,61.9,41.5,29.71,South,186,3.0,3.0,47,0.00,,---,0.00,VWS V14.01,2013-09-20 13:34:00,
2013-09-20 06:39:00,62.1,41.1,29.71,SE,146,2.0,3.0,46,0.00,,---,0.00,VWS V14.01,2013-09-20 13:39:00,
2013-09-20 06:44:00,62.2,41.2,29.71,SSE,157,1.0,3.0,46,0.00,,---,0.00,VWS V14.01,2013-09-20 13:44:00,
2013-09-20 06:49:00,62.2,41.2,29.71,SE,139,1.0,3.0,46,0.00,,---,0.00,VWS V14.01,2013-09-20 13:49:00,
2013-09-20 06:54:00,62.2,40.6,29.71,SSE,160,2.0,2.0,45,0.00,,---,0.00,VWS V14.01,2013-09-20 13:54:00,
2013-09-20 06:59:00,62.1,41.1,29.71,SSE,159,2.0,3.0,46,0.00,,---,0.00,VWS V14.01,2013-09-20 13:59:00,
2013-09-20 07:04:00,62.0,41.0,29.71,SSE,153,2.0,2.0,46,0.00,,---,0.00,VWS V14.01,2013-09-20 14:04:00,
2013-09-20 07:09:00,61.9,40.9,29.71,SSE,147,1.0,3.0,46,0.00,,---,0.00,VWS V14.01,2013-09-20 14:09:00,
2013-09-20 07:14:00,61.9,40.9,29.72,SE,143,1.0,3.0,46,0.00,,---,0.00,VWS V14.01,2013-09-20 14:14:00,
2013-09-20 07:19:00,61.8,40.8,29.72,SE,136,1.0,1.0,46,0.00,,---,0.00,VWS V14.01,2013-09-20 14:19:00,
2013-09-20 07:24:00,61.7,40.7,29.73,SE,143,1.0,2.0,46,0.00,,---,0.00,VWS V14.01,2013-09-20 14:24:00,
2013-09-20 07:29:00,61.5,40.5,29.73,SE,143,1.0,2.0,46,0.00,,---,0.00,VWS V14.01,2013-09-20 14:29:00,
2013-09-20 07:34:00,61.7,40.7,29.73,SE,139,1.0,2.0,46,0.00,,---,0.00,VWS V14.01,2013-09-20 14:34:00,
2013-09-20 07:39:00,61.9,40.9,29.73,SSE,161,1.0,1.0,46,0.00,,---,0.00,VWS V14.01,2013-09-20 14:39:00,
2013-09-20 07:44:00,62.3,40.7,29.73,SE,134,0.0,1.0,45,0.00,,---,0.00,VWS V14.01,2013-09-20 14:44:00,
2013-09-20 07:49:00,62.5,40.9,29.73,SE,136,0.0,1.0,45,0.00,,---,0.00,VWS V14.01,2013-09-20 14:49:00,
2013-09-20 07:54:00,62.9,41.3,29.73,SE,129,1.0,2.0,45,0.00,,---,0.00,VWS V14.01,2013-09-20 14:54:00,
2013-09-20 07:59:00,63.3,41.0,29.73,ESE,122,1.0,2.0,44,0.00,,---,0.00,VWS V14.01,2013-09-20 14:59:00,
2013-09-20 08:04:00,63.9,41.0,29.73,East,87,2.0,4.0,43,0.00,,---,0.00,VWS V14.01,2013-09-20 15:04:00,
2013-09-20 08:09:00,64.4,40.8,29.73,SE,143,0.0,3.0,42,0.00,,---,0.00,VWS V14.01,2013-09-20 15:09:00,
2013-09-20 08:14:00,65.0,41.4,29.73,SSW,210,1.0,5.0,42,0.00,,---,0.00,VWS V14.01,2013-09-20 15:14:00,
2013-09-20 08:19:00,66.1,42.4,29.73,ESE,109,2.0,3.0,42,0.00,,---,0.00,VWS V14.01,2013-09-20 15:19:00,
2013-09-20 08:24:00,67.1,42.6,29.73,SE,134,3.0,4.0,41,0.00,,---,0.00,VWS V14.01,2013-09-20 15:24:00,
2013-09-20 08:29:00,67.9,42.7,29.73,ESE,115,2.0,5.0,40,0.00,,---,0.00,VWS V14.01,2013-09-20 15:29:00,
2013-09-20 08:34:00,68.6,42.7,29.73,SE,146,2.0,5.0,39,0.00,,---,0.00,VWS V14.01,2013-09-20 15:34:00,
2013-09-20 08:39:00,69.4,42.0,29.73,SE,136,2.0,4.0,37,0.00,,---,0.00,VWS V14.01,2013-09-20 15:39:00,
2013-09-20 08:44:00,69.7,41.6,29.73,SSE,149,2.0,6.0,36,0.00,,---,0.00,VWS V14.01,2013-09-20 15:44:00,
2013-09-20 08:49:00,69.9,41.0,29.73,SSE,165,1.0,5.0,35,0.00,,---,0.00,VWS V14.01,2013-09-20 15:49:00,
2013-09-20 08:54:00,70.0,41.8,29.73,SE,134,3.0,9.0,36,0.00,,---,0.00,VWS V14.01,2013-09-20 15:54:00,
2013-09-20 08:59:00,70.2,42.0,29.73,SE,136,1.0,6.0,36,0.00,,---,0.00,VWS V14.01,2013-09-20 15:59:00,
2013-09-20 09:04:00,70.6,42.4,29.73,SSE,150,5.0,7.0,36,0.00,,---,0.00,VWS V14.01,2013-09-20 16:04:00,
2013-09-20 09:09:00,71.1,42.1,29.74,SE,134,1.0,6.0,35,0.00,,---,0.00,VWS V14.01,2013-09-20 16:09:00,
2013-09-20 09:14:00,71.7,42.6,29.74,WSW,238,2.0,8.0,35,0.00,,---,0.00,VWS V14.01,2013-09-20 16:14:00,
2013-09-20 09:19:00,72.2,43.1,29.74,SE,140,4.0,6.0,35,0.00,,---,0.00,VWS V14.01,2013-09-20 16:19:00,
2013-09-20 09:29:00,72.3,43.9,29.73,East,87,0.0,8.0,36,0.00,,---,0.00,VWS V14.01,2013-09-20 16:29:00,
2013-09-20 09:34:00,72.8,44.3,29.74,ESE,119,5.0,7.0,36,0.00,,---,0.00,VWS V14.01,2013-09-20 16:34:00,
2013-09-20 09:39:00,72.9,43.7,29.74,NE,53,2.0,5.0,35,0.00,,---,0.00,VWS V14.01,2013-09-20 16:39:00,
2013-09-20 09:49:00,73.1,43.8,29.75,SSE,148,2.0,6.0,35,0.00,,---,0.00,VWS V14.01,2013-09-20 16:49:00,
2013-09-20 09:54:00,73.3,44.0,29.75,East,88,3.0,7.0,35,0.00,,---,0.00,VWS V14.01,2013-09-20 16:54:00,
2013-09-20 09:59:00,73.5,44.9,29.75,SSE,164,6.0,6.0,36,0.00,,---,0.00,VWS V14.01,2013-09-20 16:59:00,
2013-09-20 10:04:00,73.7,45.1,29.75,SSE,162,2.0,6.0,36,0.00,,---,0.00,VWS V14.01,2013-09-20 17:04:00,
2013-09-20 10:09:00,74.1,44.7,29.75,SSE,147,4.0,7.0,35,0.00,,---,0.00,VWS V14.01,2013-09-20 17:09:00,
2013-09-20 10:14:00,74.3,44.9,29.75,SW,226,4.0,7.0,35,0.00,,---,0.00,VWS V14.01,2013-09-20 17:14:00,
2013-09-20 10:24:00,74.8,44.6,29.76,ESE,103,2.0,9.0,34,0.00,,---,0.00,VWS V14.01,2013-09-20 17:24:00,
2013-09-20 10:29:00,74.7,44.5,29.75,SSW,211,3.0,7.0,34,0.00,,---,0.00,VWS V14.01,2013-09-20 17:29:00,
2013-09-20 10:34:00,75.0,44.8,29.76,SE,141,5.0,8.0,34,0.00,,---,0.00,VWS V14.01,2013-09-20 17:34:00,
2013-09-20 10:39:00,75.1,44.1,29.76,ESE,118,2.0,7.0,33,0.00,,---,0.00,VWS V14.01,2013-09-20 17:39:00,
2013-09-20 10:44:00,75.4,45.1,29.76,SSE,148,4.0,7.0,34,0.00,,---,0.00,VWS V14.01,2013-09-20 17:44:00,
2013-09-20 10:49:00,75.2,44.9,29.75,SE,134,2.0,9.0,34,0.00,,---,0.00,VWS V14.01,2013-09-20 17:49:00,
2013-09-20 10:54:00,75.3,45.0,29.75,SE,141,2.0,7.0,34,0.00,,---,0.00,VWS V14.01,2013-09-20 17:54:00,
2013-09-20 10:59:00,75.7,46.1,29.75,SE,132,4.0,7.0,35,0.00,,---,0.00,VWS V14.01,2013-09-20 17:59:00,
2013-09-20 11:04:00,76.3,45.9,29.75,SE,132,3.0,7.0,34,0.00,,---,0.00,VWS V14.01,2013-09-20 18:04:00,
2013-09-20 11:09:00,76.8,46.3,29.75,SSW,194,8.0,8.0,34,0.00,,---,0.00,VWS V14.01,2013-09-20 18:09:00,
2013-09-20 11:14:00,76.8,46.3,29.75,SSW,208,6.0,8.0,34,0.00,,---,0.00,VWS V14.01,2013-09-20 18:14:00,
2013-09-20 11:19:00,76.9,47.2,29.76,SE,140,4.0,7.0,35,0.00,,---,0.00,VWS V14.01,2013-09-20 18:19:00,
2013-09-20 11:24:00,77.2,46.7,29.76,SSW,212,2.0,8.0,34,0.00,,---,0.00,VWS V14.01,2013-09-20 18:24:00,
2013-09-20 11:34:00,77.7,48.7,29.76,SE,124,1.0,5.0,36,0.00,,---,0.00,VWS V14.01,2013-09-20 18:34:00,
2013-09-20 11:39:00,78.0,49.7,29.76,West,271,0.0,5.0,37,0.00,,---,0.00,VWS V14.01,2013-09-20 18:39:00,
2013-09-20 11:44:00,78.1,49.0,29.77,South,172,4.0,6.0,36,0.00,,---,0.00,VWS V14.01,2013-09-20 18:44:00,
2013-09-20 11:54:00,78.4,50.0,29.77,ESE,120,1.0,6.0,37,0.00,,---,0.00,VWS V14.01,2013-09-20 18:54:00,
2013-09-20 11:59:00,78.6,50.9,29.77,SSE,165,2.0,6.0,38,0.00,,---,0.00,VWS V14.01,2013-09-20 18:59:00,
2013-09-20 12:09:00,78.8,51.1,29.77,East,92,2.0,6.0,38,0.00,,---,0.00,VWS V14.01,2013-09-20 19:09:00,
2013-09-20 12:14:00,78.6,51.6,29.77,SSE,151,1.0,4.0,39,0.00,,---,0.00,VWS V14.01,2013-09-20 19:14:00,
2013-09-20 12:24:00,79.0,52.0,29.77,ESE,117,1.0,5.0,39,0.00,,---,0.00,VWS V14.01,2013-09-20 19:24:00,
2013-09-20 12:29:00,79.1,52.7,29.77,ESE,120,4.0,5.0,40,0.00,,---,0.00,VWS V14.01,2013-09-20 19:29:00,
2013-09-20 12:39:00,79.1,52.7,29.77,SW,221,3.0,6.0,40,0.00,,---,0.00,VWS V14.01,2013-09-20 19:39:00,
2013-09-20 12:44:00,79.2,52.8,29.77,SSE,148,1.0,10.0,40,0.00,,---,0.00,VWS V14.01,2013-09-20 19:44:00,
2013-09-20 12:49:00,79.5,52.4,29.77,SE,137,3.0,4.0,39,0.00,,---,0.00,VWS V14.01,2013-09-20 19:49:00,
2013-09-20 12:59:00,79.9,52.8,29.77,West,281,1.0,5.0,39,0.00,,---,0.00,VWS V14.01,2013-09-20 19:59:00,
2013-09-20 13:09:00,80.1,52.9,29.76,NW,307,1.0,7.0,39,0.00,,---,0.00,VWS V14.01,2013-09-20 20:09:00,
2013-09-20 13:14:00,80.4,53.9,29.76,ESE,110,1.0,8.0,40,0.00,,---,0.00,VWS V14.01,2013-09-20 20:14:00,
2013-09-20 13:24:00,80.6,52.0,29.76,WNW,293,1.0,5.0,37,0.00,,---,0.00,VWS V14.01,2013-09-20 20:24:00,
2013-09-20 13:34:00,81.0,54.4,29.76,SE,134,5.0,5.0,40,0.00,,---,0.00,VWS V14.01,2013-09-20 20:34:00,
2013-09-20 13:39:00,81.0,53.0,29.76,SE,131,1.0,8.0,38,0.00,,---,0.00,VWS V14.01,2013-09-20 20:39:00,
2013-09-20 13:44:00,80.9,55.0,29.76,SSE,159,2.0,7.0,41,0.00,,---,0.00,VWS V14.01,2013-09-20 20:44:00,
2013-09-20 13:54:00,81.3,55.4,29.75,South,173,1.0,4.0,41,0.00,,---,0.00,VWS V14.01,2013-09-20 20:54:00,
2013-09-20 13:59:00,81.1,54.5,29.75,WNW,295,1.0,7.0,40,0.00,,---,0.00,VWS V14.01,2013-09-20 20:59:00,
2013-09-20 14:09:00,81.8,55.8,29.75,SE,128,1.0,6.0,41,0.00,,---,0.00,VWS V14.01,2013-09-20 21:09:00,
2013-09-20 14:14:00,81.9,55.2,29.75,SE,125,1.0,5.0,40,0.00,,---,0.00,VWS V14.01,2013-09-20 21:14:00,
2013-09-20 14:24:00,81.9,55.2,29.75,SSW,198,2.0,6.0,40,0.00,,---,0.00,VWS V14.01,2013-09-20 21:24:00,
2013-09-20 14:29:00,82.0,56.7,29.75,SE,124,0.0,5.0,42,0.00,,---,0.00,VWS V14.01,2013-09-20 21:29:00,
2013-09-20 14:34:00,82.5,57.1,29.75,SE,132,1.0,5.0,42,0.00,,---,0.00,VWS V14.01,2013-09-20 21:34:00,
2013-09-20 14:39:00,82.3,56.9,29.75,ENE,73,2.0,7.0,42,0.00,,---,0.00,VWS V14.01,2013-09-20 21:39:00,
2013-09-20 14:49:00,82.3,56.3,29.75,SW,214,4.0,5.0,41,0.00,,---,0.00,VWS V14.01,2013-09-20 21:49:00,
2013-09-20 14:54:00,81.9,55.9,29.75,ESE,120,2.0,6.0,41,0.00,,---,0.00,VWS V14.01,2013-09-20 21:54:00,
2013-09-20 14:59:00,81.6,56.3,29.75,NE,56,2.0,3.0,42,0.00,,---,0.00,VWS V14.01,2013-09-20 21:59:00,
2013-09-20 15:09:00,81.4,56.8,29.75,ESE,109,0.0,6.0,43,0.00,,---,0.00,VWS V14.01,2013-09-20 22:09:00,
2013-09-20 15:19:00,81.6,57.6,29.75,NW,305,1.0,4.0,44,0.00,,---,0.00,VWS V14.01,2013-09-20 22:19:00,
2013-09-20 15:24:00,81.8,57.1,29.75,South,183,2.0,6.0,43,0.00,,---,0.00,VWS V14.01,2013-09-20 22:24:00,
2013-09-20 15:29:00,81.5,56.9,29.75,SSE,167,1.0,7.0,43,0.00,,---,0.00,VWS V14.01,2013-09-20 22:29:00,
2013-09-20 15:39:00,81.4,56.8,29.75,SSW,198,1.0,6.0,43,0.00,,---,0.00,VWS V14.01,2013-09-20 22:39:00,
2013-09-20 15:44:00,81.5,56.2,29.74,SSE,159,2.0,6.0,42,0.00,,---,0.00,VWS V14.01,2013-09-20 22:44:00,
2013-09-20 15:49:00,81.5,55.5,29.74,ESE,110,3.0,6.0,41,0.00,,---,0.00,VWS V14.01,2013-09-20 22:49:00,
2013-09-20 15:54:00,81.5,56.9,29.74,SE,140,2.0,5.0,43,0.00,,---,0.00,VWS V14.01,2013-09-20 22:54:00,
2013-09-20 15:59:00,81.3,58.0,29.74,SSE,157,2.0,5.0,45,0.00,,---,0.00,VWS V14.01,2013-09-20 22:59:00,
2013-09-20 16:09:00,81.5,58.1,29.74,SE,132,1.0,5.0,45,0.00,,---,0.00,VWS V14.01,2013-09-20 23:09:00,
2013-09-20 16:14:00,81.6,58.2,29.74,ESE,120,2.0,5.0,45,0.00,,---,0.00,VWS V14.01,2013-09-20 23:14:00,
2013-09-20 16:19:00,81.4,57.4,29.74,SSE,165,3.0,5.0,44,0.00,,---,0.00,VWS V14.01,2013-09-20 23:19:00,
2013-09-20 16:24:00,81.3,58.6,29.74,SE,141,1.0,5.0,46,0.00,,---,0.00,VWS V14.01,2013-09-20 23:24:00,
2013-09-20 16:29:00,81.4,59.3,29.74,SSE,159,4.0,6.0,47,0.00,,---,0.00,VWS V14.01,2013-09-20 23:29:00,
2013-09-20 16:34:00,81.3,58.6,29.74,ESE,111,1.0,6.0,46,0.00,,---,0.00,VWS V14.01,2013-09-20 23:34:00,
2013-09-20 16:39:00,81.0,58.3,29.73,South,191,2.0,6.0,46,0.00,,---,0.00,VWS V14.01,2013-09-20 23:39:00,
2013-09-20 16:49:00,80.6,58.5,29.73,SE,142,0.0,4.0,47,0.00,,---,0.00,VWS V14.01,2013-09-20 23:49:00,
2013-09-20 16:54:00,80.6,59.1,29.74,East,100,3.0,4.0,48,0.00,,---,0.00,VWS V14.01,2013-09-20 23:54:00,
2013-09-20 16:59:00,80.4,58.9,29.73,SSE,163,3.0,5.0,48,0.00,,---,0.00,VWS V14.01,2013-09-20 23:59:00,
2013-09-20 17:04:00,79.9,57.9,29.73,ESE,122,1.0,5.0,47,0.00,,---,0.00,VWS V14.01,2013-09-21 00:04:00,
2013-09-20 17:09:00,79.8,59.5,29.73,SE,131,2.0,5.0,50,0.00,,---,0.00,VWS V14.01,2013-09-21 00:09:00,
2013-09-20 17:14:00,79.2,59.0,29.73,ESE,108,3.0,6.0,50,0.00,,---,0.00,VWS V14.01,2013-09-21 00:14:00,
2013-09-20 17:19:00,78.8,59.2,29.73,WSW,252,1.0,4.0,51,0.00,,---,0.00,VWS V14.01,2013-09-21 00:19:00,
2013-09-20 17:24:00,78.3,59.2,29.73,SSE,155,2.0,5.0,52,0.00,,---,0.00,VWS V14.01,2013-09-21 00:24:00,
2013-09-20 17:29:00,77.9,59.4,29.74,West,260,1.0,5.0,53,0.00,,---,0.00,VWS V14.01,2013-09-21 00:29:00,
2013-09-20 17:34:00,77.7,60.3,29.74,ESE,108,1.0,4.0,55,0.00,,---,0.00,VWS V14.01,2013-09-21 00:34:00,
2013-09-20 17:39:00,77.4,60.0,29.74,East,101,3.0,4.0,55,0.00,,---,0.00,VWS V14.01,2013-09-21 00:39:00,
2013-09-20 17:44:00,77.0,59.6,29.74,SSE,167,1.0,5.0,55,0.00,,---,0.00,VWS V14.01,2013-09-21 00:44:00,
2013-09-20 17:49:00,76.4,60.1,29.74,SW,224,2.0,3.0,57,0.00,,---,0.00,VWS V14.01,2013-09-21 00:49:00,
2013-09-20 17:59:00,75.5,60.2,29.74,SSE,156,1.0,5.0,59,0.00,,---,0.00,VWS V14.01,2013-09-21 00:59:00,
2013-09-20 18:09:00,74.8,60.5,29.74,East,90,2.0,5.0,61,0.00,,---,0.00,VWS V14.01,2013-09-21 01:09:00,
2013-09-20 18:14:00,74.6,60.7,29.74,South,176,2.0,7.0,62,0.00,,---,0.00,VWS V14.01,2013-09-21 01:14:00,
2013-09-20 18:19:00,74.1,60.7,29.74,West,262,3.0,6.0,63,0.00,,---,0.00,VWS V14.01,2013-09-21 01:19:00,
2013-09-20 18:24:00,73.8,60.9,29.74,ESE,118,1.0,8.0,64,0.00,,---,0.00,VWS V14.01,2013-09-21 01:24:00,
2013-09-20 18:29:00,73.4,60.5,29.74,SW,222,2.0,6.0,64,0.00,,---,0.00,VWS V14.01,2013-09-21 01:29:00,
2013-09-20 18:34:00,73.1,60.7,29.74,ESE,111,2.0,5.0,65,0.00,,---,0.00,VWS V14.01,2013-09-21 01:34:00,
2013-09-20 18:39:00,72.9,60.5,29.74,ESE,121,1.0,4.0,65,0.00,,---,0.00,VWS V14.01,2013-09-21 01:39:00,
2013-09-20 18:44:00,72.7,60.7,29.75,SE,128,1.0,6.0,66,0.00,,---,0.00,VWS V14.01,2013-09-21 01:44:00,
2013-09-20 18:49:00,72.3,60.3,29.75,SSE,152,1.0,4.0,66,0.00,,---,0.00,VWS V14.01,2013-09-21 01:49:00,
2013-09-20 18:54:00,71.9,60.4,29.75,SSE,167,1.0,5.0,67,0.00,,---,0.00,VWS V14.01,2013-09-21 01:54:00,
2013-09-20 18:59:00,71.5,60.4,29.75,East,80,0.0,4.0,68,0.00,,---,0.00,VWS V14.01,2013-09-21 01:59:00,
2013-09-20 19:04:00,71.2,60.5,29.75,SW,215,1.0,4.0,69,0.00,,---,0.00,VWS V14.01,2013-09-21 02:04:00,
2013-09-20 19:09:00,70.8,60.5,29.75,SSW,201,3.0,5.0,70,0.00,,---,0.00,VWS V14.01,2013-09-21 02:09:00,
2013-09-20 19:14:00,70.4,60.2,29.75,South,186,1.0,4.0,70,0.00,,---,0.00,VWS V14.01,2013-09-21 02:14:00,
2013-09-20 19:24:00,69.6,59.8,29.75,SSE,150,1.0,4.0,71,0.00,,---,0.00,VWS V14.01,2013-09-21 02:24:00,
2013-09-20 19:29:00,69.3,59.9,29.76,SE,124,1.0,3.0,72,0.00,,---,0.00,VWS V14.01,2013-09-21 02:29:00,
2013-09-20 19:34:00,69.0,60.0,29.76,SE,132,1.0,3.0,73,0.00,,---,0.00,VWS V14.01,2013-09-21 02:34:00,
2013-09-20 19:39:00,68.8,60.2,29.76,SSW,200,1.0,4.0,74,0.00,,---,0.00,VWS V14.01,2013-09-21 02:39:00,
2013-09-20 19:44:00,68.5,59.9,29.76,SE,129,3.0,4.0,74,0.00,,---,0.00,VWS V14.01,2013-09-21 02:44:00,
2013-09-20 19:49:00,68.2,60.0,29.76,ESE,123,1.0,5.0,75,0.00,,---,0.00,VWS V14.01,2013-09-21 02:49:00,
2013-09-20 19:54:00,67.9,59.7,29.77,SSW,211,1.0,3.0,75,0.00,,---,0.00,VWS V14.01,2013-09-21 02:54:00,
2013-09-20 19:59:00,67.7,59.9,29.77,SE,136,1.0,4.0,76,0.00,,---,0.00,VWS V14.01,2013-09-21 02:59:00,
2013-09-20 20:04:00,67.5,59.7,29.77,SSW,204,0.0,4.0,76,0.00,,---,0.00,VWS V14.01,2013-09-21 03:04:00,
2013-09-20 20:09:00,67.2,59.4,29.78,WNW,301,0.0,3.0,76,0.00,,---,0.00,VWS V14.01,2013-09-21 03:09:00,
2013-09-20 20:14:00,66.9,59.5,29.78,South,173,0.0,3.0,77,0.00,,---,0.00,VWS V14.01,2013-09-21 03:14:00,
2013-09-20 20:24:00,66.6,59.5,29.78,SSE,154,1.0,4.0,78,0.00,,---,0.00,VWS V14.01,2013-09-21 03:24:00,
2013-09-20 20:29:00,66.3,59.2,29.79,ESE,115,0.0,6.0,78,0.00,,---,0.00,VWS V14.01,2013-09-21 03:29:00,
2013-09-20 20:34:00,66.1,59.4,29.79,SE,124,0.0,1.0,79,0.00,,---,0.00,VWS V14.01,2013-09-21 03:34:00,
2013-09-20 20:39:00,65.8,59.1,29.79,SE,131,1.0,2.0,79,0.00,,---,0.00,VWS V14.01,2013-09-21 03:39:00,
2013-09-20 20:44:00,65.6,59.3,29.79,SSE,153,2.0,4.0,80,0.00,,---,0.00,VWS V14.01,2013-09-21 03:44:00,
2013-09-20 20:49:00,65.5,59.2,29.80,SSE,153,0.0,4.0,80,0.00,,---,0.00,VWS V14.01,2013-09-21 03:49:00,
2013-09-20 20:54:00,65.2,58.9,29.80,SSW,198,0.0,4.0,80,0.00,,---,0.00,VWS V14.01,2013-09-21 03:54:00,
2013-09-20 20:59:00,65.0,59.0,29.80,SSE,154,3.0,3.0,81,0.00,,---,0.00,VWS V14.01,2013-09-21 03:59:00,
2013-09-20 21:04:00,64.9,58.9,29.80,SE,133,3.0,4.0,81,0.00,,---,0.00,VWS V14.01,2013-09-21 04:04:00,
2013-09-20 21:09:00,64.7,59.1,29.80,SSE,167,1.0,3.0,82,0.00,,---,0.00,VWS V14.01,2013-09-21 04:09:00,
2013-09-20 21:14:00,64.5,58.9,29.81,SSE,153,0.0,2.0,82,0.00,,---,0.00,VWS V14.01,2013-09-21 04:14:00,
2013-09-20 21:19:00,64.2,58.6,29.80,SE,136,0.0,2.0,82,0.00,,---,0.00,VWS V14.01,2013-09-21 04:19:00,
2013-09-20 21:24:00,64.0,58.7,29.81,SE,139,1.0,2.0,83,0.00,,---,0.00,VWS V14.01,2013-09-21 04:24:00,
2013-09-20 21:29:00,63.8,58.9,29.81,SSE,166,0.0,2.0,84,0.00,,---,0.00,VWS V14.01,2013-09-21 04:29:00,
2013-09-20 21:34:00,63.6,58.7,29.81,SE,143,1.0,2.0,84,0.00,,---,0.00,VWS V14.01,2013-09-21 04:34:00,
2013-09-20 21:44:00,63.4,58.8,29.81,SE,143,3.0,4.0,85,0.00,,---,0.00,VWS V14.01,2013-09-21 04:44:00,
2013-09-20 21:49:00,63.5,58.6,29.81,SE,129,3.0,5.0,84,0.00,,---,0.00,VWS V14.01,2013-09-21 04:49:00,
2013-09-20 21:54:00,63.6,58.7,29.81,East,89,1.0,4.0,84,0.00,,---,0.00,VWS V14.01,2013-09-21 04:54:00,
2013-09-20 21:59:00,63.5,58.6,29.81,SE,131,0.0,2.0,84,0.00,,---,0.00,VWS V14.01,2013-09-21 04:59:00,
2013-09-20 22:04:00,63.2,58.3,29.81,East,99,0.0,3.0,84,0.00,,---,0.00,VWS V14.01,2013-09-21 05:04:00,
2013-09-20 22:09:00,63.0,58.4,29.81,SSE,147,1.0,3.0,85,0.00,,---,0.00,VWS V14.01,2013-09-21 05:09:00,
2013-09-20 22:14:00,63.0,58.4,29.81,SE,143,1.0,3.0,85,0.00,,---,0.00,VWS V14.01,2013-09-21 05:14:00,
2013-09-20 22:19:00,63.0,58.4,29.81,SE,136,1.0,5.0,85,0.00,,---,0.00,VWS V14.01,2013-09-21 05:19:00,
2013-09-20 22:24:00,63.0,58.4,29.81,ESE,121,2.0,5.0,85,0.00,,---,0.00,VWS V14.01,2013-09-21 05:24:00,
2013-09-20 22:34:00,62.8,58.2,29.81,SSE,150,0.0,3.0,85,0.00,,---,0.00,VWS V14.01,2013-09-21 05:34:00,
2013-09-20 22:39:00,62.6,58.4,29.81,SE,143,2.0,3.0,86,0.00,,---,0.00,VWS V14.01,2013-09-21 05:39:00,
2013-09-20 22:44:00,62.5,58.3,29.81,SSE,147,0.0,3.0,86,0.00,,---,0.00,VWS V14.01,2013-09-21 05:44:00,
2013-09-20 22:49:00,62.3,58.1,29.82,SE,143,1.0,3.0,86,0.00,,---,0.00,VWS V14.01,2013-09-21 05:49:00,
2013-09-20 22:54:00,62.2,58.3,29.81,SSE,163,1.0,2.0,87,0.00,,---,0.00,VWS V14.01,2013-09-21 05:54:00,
2013-09-20 22:59:00,62.2,58.3,29.81,SSE,163,0.0,2.0,87,0.00,,---,0.00,VWS V14.01,2013-09-21 05:59:00,
2013-09-20 23:04:00,62.1,58.2,29.81,SSE,160,2.0,3.0,87,0.00,,---,0.00,VWS V14.01,2013-09-21 06:04:00,
2013-09-20 23:09:00,62.0,58.1,29.81,SSW,194,1.0,2.0,87,0.00,,---,0.00,VWS V14.01,2013-09-21 06:09:00,
2013-09-20 23:14:00,61.9,58.0,29.82,South,172,0.0,1.0,87,0.00,,---,0.00,VWS V14.01,2013-09-21 06:14:00,
2013-09-20 23:19:00,61.8,57.9,29.81,SSE,147,0.0,1.0,87,0.00,,---,0.00,VWS V14.01,2013-09-21 06:19:00,
2013-09-20 23:24:00,61.7,58.1,29.81,SE,124,1.0,2.0,88,0.00,,---,0.00,VWS V14.01,2013-09-21 06:24:00,
2013-09-20 23:29:00,61.6,58.0,29.81,SSE,161,0.0,2.0,88,0.00,,---,0.00,VWS V14.01,2013-09-21 06:29:00,
2013-09-20 23:34:00,61.5,57.9,29.81,SSE,153,0.0,1.0,88,0.00,,---,0.00,VWS V14.01,2013-09-21 06:34:00,
2013-09-20 23:39:00,61.4,57.8,29.81,SSE,150,0.0,1.0,88,0.00,,---,0.00,VWS V14.01,2013-09-21 06:39:00,
2013-09-20 23:44:00,61.3,57.7,29.81,SSE,149,0.0,0.0,88,0.00,,---,0.00,VWS V14.01,2013-09-21 06:44:00,
2013-09-20 23:49:00,61.2,57.6,29.81,SE,139,1.0,2.0,88,0.00,,---,0.00,VWS V14.01,2013-09-21 06:49:00,
2013-09-20 23:54:00,61.1,57.5,29.81,SSE,162,0.0,1.0,88,0.00,,---,0.00,VWS V14.01,2013-09-21 06:54:00,
2013-09-20 23:59:00,60.9,57.6,29.81,SSE,157,0.0,2.0,89,0.00,,---,0.00,VWS V14.01,2013-09-21 06:59:00,